sensor_id;sensor_type;location;lat;lon;timestamp;P1;durP1;ratioP1;P2;durP2;ratioP2
31537;SDS011;18147;51.952;6.146;2022-12-29T00:01:46;6.18;;;3.92;;
31537;SDS011;18147;51.952;6.146;2022-12-29T00:04:12;7.18;;;3.33;;
31537;SDS011;18147;51.952;6.146;2022-12-29T00:06:41;5.13;;;3.15;;
31537;SDS011;18147;51.952;6.146;2022-12-29T00:09:08;5.82;;;3.20;;
31537;SDS011;18147;51.952;6.146;2022-12-29T00:11:35;5.85;;;3.05;;
31537;SDS011;18147;51.952;6.146;2022-12-29T00:14:00;8.15;;;3.30;;
31537;SDS011;18147;51.952;6.146;2022-12-29T00:16:44;4.15;;;3.40;;
31537;SDS011;18147;51.952;6.146;2022-12-29T00:19:10;5.65;;;3.15;;
31537;SDS011;18147;51.952;6.146;2022-12-29T00:21:57;5.07;;;3.80;;
31537;SDS011;18147;51.952;6.146;2022-12-29T00:24:42;4.32;;;2.95;;
31537;SDS011;18147;51.952;6.146;2022-12-29T00:27:27;4.05;;;3.25;;
31537;SDS011;18147;51.952;6.146;2022-12-29T00:30:18;4.20;;;2.95;;
31537;SDS011;18147;51.952;6.146;2022-12-29T00:33:08;6.45;;;3.17;;
31537;SDS011;18147;51.952;6.146;2022-12-29T00:35:55;6.13;;;3.25;;
31537;SDS011;18147;51.952;6.146;2022-12-29T00:38:25;5.45;;;3.15;;
31537;SDS011;18147;51.952;6.146;2022-12-29T00:41:10;4.03;;;3.28;;
31537;SDS011;18147;51.952;6.146;2022-12-29T00:43:54;5.95;;;3.65;;
31537;SDS011;18147;51.952;6.146;2022-12-29T00:46:36;5.00;;;3.00;;
31537;SDS011;18147;51.952;6.146;2022-12-29T00:49:03;4.30;;;3.13;;
31537;SDS011;18147;51.952;6.146;2022-12-29T00:51:49;6.38;;;3.00;;
31537;SDS011;18147;51.952;6.146;2022-12-29T00:54:15;2.75;;;2.40;;
31537;SDS011;18147;51.952;6.146;2022-12-29T00:56:41;2.75;;;2.33;;
31537;SDS011;18147;51.952;6.146;2022-12-29T00:59:07;5.18;;;2.83;;
31537;SDS011;18147;51.952;6.146;2022-12-29T01:01:34;5.43;;;2.17;;
31537;SDS011;18147;51.952;6.146;2022-12-29T01:04:00;3.50;;;2.33;;
31537;SDS011;18147;51.952;6.146;2022-12-29T01:06:26;3.33;;;2.17;;
31537;SDS011;18147;51.952;6.146;2022-12-29T01:08:52;2.55;;;2.05;;
31537;SDS011;18147;51.952;6.146;2022-12-29T01:11:36;3.35;;;2.00;;
31537;SDS011;18147;51.952;6.146;2022-12-29T01:14:02;3.83;;;1.80;;
31537;SDS011;18147;51.952;6.146;2022-12-29T01:16:29;3.08;;;1.48;;
31537;SDS011;18147;51.952;6.146;2022-12-29T01:18:55;3.65;;;1.52;;
31537;SDS011;18147;51.952;6.146;2022-12-29T01:21:20;2.17;;;1.33;;
31537;SDS011;18147;51.952;6.146;2022-12-29T01:23:46;3.25;;;1.10;;
31537;SDS011;18147;51.952;6.146;2022-12-29T01:26:12;1.83;;;1.23;;
31537;SDS011;18147;51.952;6.146;2022-12-29T01:28:38;3.15;;;1.08;;
31537;SDS011;18147;51.952;6.146;2022-12-29T01:31:14;3.80;;;1.23;;
31537;SDS011;18147;51.952;6.146;2022-12-29T01:33:40;1.98;;;1.70;;
31537;SDS011;18147;51.952;6.146;2022-12-29T01:36:07;3.95;;;1.85;;
31537;SDS011;18147;51.952;6.146;2022-12-29T01:38:35;1.60;;;1.25;;
31537;SDS011;18147;51.952;6.146;2022-12-29T01:41:01;2.10;;;1.30;;
31537;SDS011;18147;51.952;6.146;2022-12-29T01:48:44;1.35;;;1.20;;
31537;SDS011;18147;51.952;6.146;2022-12-29T01:51:13;2.17;;;1.27;;
31537;SDS011;18147;51.952;6.146;2022-12-29T01:53:39;1.80;;;1.70;;
31537;SDS011;18147;51.952;6.146;2022-12-29T01:56:06;2.00;;;1.80;;
31537;SDS011;18147;51.952;6.146;2022-12-29T01:58:37;2.50;;;2.00;;
31537;SDS011;18147;51.952;6.146;2022-12-29T02:01:06;4.18;;;2.60;;
31537;SDS011;18147;51.952;6.146;2022-12-29T02:03:34;2.97;;;2.60;;
31537;SDS011;18147;51.952;6.146;2022-12-29T02:06:06;3.28;;;2.90;;
31537;SDS011;18147;51.952;6.146;2022-12-29T02:08:37;3.30;;;2.90;;
31537;SDS011;18147;51.952;6.146;2022-12-29T02:11:04;5.93;;;2.92;;
31537;SDS011;18147;51.952;6.146;2022-12-29T02:13:32;5.20;;;2.60;;
31537;SDS011;18147;51.952;6.146;2022-12-29T02:22:07;3.03;;;2.30;;
31537;SDS011;18147;51.952;6.146;2022-12-29T02:24:51;3.38;;;2.20;;
31537;SDS011;18147;51.952;6.146;2022-12-29T02:43:56;4.07;;;1.83;;
31537;SDS011;18147;51.952;6.146;2022-12-29T02:46:36;3.47;;;1.80;;
31537;SDS011;18147;51.952;6.146;2022-12-29T02:49:15;2.28;;;1.30;;
31537;SDS011;18147;51.952;6.146;2022-12-29T02:51:52;3.08;;;1.42;;
31537;SDS011;18147;51.952;6.146;2022-12-29T02:54:24;2.13;;;1.42;;
31537;SDS011;18147;51.952;6.146;2022-12-29T03:00:03;2.92;;;1.20;;
31537;SDS011;18147;51.952;6.146;2022-12-29T03:11:03;3.05;;;1.27;;
31537;SDS011;18147;51.952;6.146;2022-12-29T03:14:17;1.98;;;1.20;;
31537;SDS011;18147;51.952;6.146;2022-12-29T03:17:15;3.45;;;1.23;;
31537;SDS011;18147;51.952;6.146;2022-12-29T03:19:48;2.95;;;1.00;;
31537;SDS011;18147;51.952;6.146;2022-12-29T03:22:18;4.43;;;1.00;;
31537;SDS011;18147;51.952;6.146;2022-12-29T03:25:17;1.20;;;0.80;;
31537;SDS011;18147;51.952;6.146;2022-12-29T03:30:19;1.98;;;1.05;;
31537;SDS011;18147;51.952;6.146;2022-12-29T03:32:58;1.20;;;0.80;;
31537;SDS011;18147;51.952;6.146;2022-12-29T03:35:30;2.70;;;1.08;;
31537;SDS011;18147;51.952;6.146;2022-12-29T03:40:36;9.52;;;1.20;;
31537;SDS011;18147;51.952;6.146;2022-12-29T03:43:03;4.82;;;1.13;;
31537;SDS011;18147;51.952;6.146;2022-12-29T03:45:32;5.18;;;1.10;;
31537;SDS011;18147;51.952;6.146;2022-12-29T03:47:58;3.33;;;1.30;;
31537;SDS011;18147;51.952;6.146;2022-12-29T03:50:24;4.47;;;1.00;;
31537;SDS011;18147;51.952;6.146;2022-12-29T03:52:50;5.15;;;1.10;;
31537;SDS011;18147;51.952;6.146;2022-12-29T03:55:15;1.40;;;0.90;;
31537;SDS011;18147;51.952;6.146;2022-12-29T03:57:41;5.80;;;1.38;;
31537;SDS011;18147;51.952;6.146;2022-12-29T04:00:11;2.97;;;0.90;;
31537;SDS011;18147;51.952;6.146;2022-12-29T04:02:48;1.40;;;0.80;;
31537;SDS011;18147;51.952;6.146;2022-12-29T04:05:19;5.07;;;1.33;;
31537;SDS011;18147;51.952;6.146;2022-12-29T04:07:45;3.45;;;0.95;;
31537;SDS011;18147;51.952;6.146;2022-12-29T04:10:11;3.42;;;1.00;;
31537;SDS011;18147;51.952;6.146;2022-12-29T04:12:37;2.65;;;1.00;;
31537;SDS011;18147;51.952;6.146;2022-12-29T04:15:02;1.30;;;0.90;;
31537;SDS011;18147;51.952;6.146;2022-12-29T04:17:31;2.35;;;0.95;;
31537;SDS011;18147;51.952;6.146;2022-12-29T04:19:56;3.42;;;1.42;;
31537;SDS011;18147;51.952;6.146;2022-12-29T04:22:42;2.08;;;1.13;;
31537;SDS011;18147;51.952;6.146;2022-12-29T04:25:07;2.50;;;1.23;;
31537;SDS011;18147;51.952;6.146;2022-12-29T04:27:33;1.30;;;1.10;;
31537;SDS011;18147;51.952;6.146;2022-12-29T04:30:22;2.90;;;0.90;;
31537;SDS011;18147;51.952;6.146;2022-12-29T04:33:03;7.72;;;1.35;;
31537;SDS011;18147;51.952;6.146;2022-12-29T04:35:29;2.08;;;1.27;;
31537;SDS011;18147;51.952;6.146;2022-12-29T04:37:54;1.50;;;1.00;;
31537;SDS011;18147;51.952;6.146;2022-12-29T04:40:20;2.17;;;0.98;;
31537;SDS011;18147;51.952;6.146;2022-12-29T04:42:46;2.00;;;0.98;;
31537;SDS011;18147;51.952;6.146;2022-12-29T04:45:12;6.50;;;1.10;;
31537;SDS011;18147;51.952;6.146;2022-12-29T04:47:53;3.95;;;1.35;;
31537;SDS011;18147;51.952;6.146;2022-12-29T04:50:27;11.20;;;1.98;;
31537;SDS011;18147;51.952;6.146;2022-12-29T04:53:25;5.00;;;1.45;;
31537;SDS011;18147;51.952;6.146;2022-12-29T04:55:52;5.43;;;1.10;;
31537;SDS011;18147;51.952;6.146;2022-12-29T04:58:19;3.95;;;1.20;;
31537;SDS011;18147;51.952;6.146;2022-12-29T05:00:46;9.15;;;1.25;;
31537;SDS011;18147;51.952;6.146;2022-12-29T05:03:11;3.63;;;1.23;;
31537;SDS011;18147;51.952;6.146;2022-12-29T05:05:39;1.75;;;1.15;;
31537;SDS011;18147;51.952;6.146;2022-12-29T05:08:05;5.68;;;1.30;;
31537;SDS011;18147;51.952;6.146;2022-12-29T05:10:31;8.77;;;1.95;;
31537;SDS011;18147;51.952;6.146;2022-12-29T05:13:00;2.85;;;1.15;;
31537;SDS011;18147;51.952;6.146;2022-12-29T05:15:26;6.30;;;1.38;;
31537;SDS011;18147;51.952;6.146;2022-12-29T05:17:51;2.25;;;0.93;;
31537;SDS011;18147;51.952;6.146;2022-12-29T05:20:17;4.57;;;1.50;;
31537;SDS011;18147;51.952;6.146;2022-12-29T05:22:43;6.45;;;1.27;;
31537;SDS011;18147;51.952;6.146;2022-12-29T05:25:08;4.97;;;1.05;;
31537;SDS011;18147;51.952;6.146;2022-12-29T05:27:46;6.07;;;1.13;;
31537;SDS011;18147;51.952;6.146;2022-12-29T05:30:23;3.38;;;1.17;;
31537;SDS011;18147;51.952;6.146;2022-12-29T05:32:49;4.97;;;1.40;;
31537;SDS011;18147;51.952;6.146;2022-12-29T05:35:16;3.65;;;1.30;;
31537;SDS011;18147;51.952;6.146;2022-12-29T05:37:41;7.60;;;2.22;;
31537;SDS011;18147;51.952;6.146;2022-12-29T05:40:07;3.22;;;1.30;;
31537;SDS011;18147;51.952;6.146;2022-12-29T05:42:33;7.03;;;1.40;;
31537;SDS011;18147;51.952;6.146;2022-12-29T05:45:22;4.05;;;2.28;;
31537;SDS011;18147;51.952;6.146;2022-12-29T05:48:06;9.65;;;1.60;;
31537;SDS011;18147;51.952;6.146;2022-12-29T05:50:48;9.90;;;1.75;;
31537;SDS011;18147;51.952;6.146;2022-12-29T05:53:19;7.15;;;1.60;;
31537;SDS011;18147;51.952;6.146;2022-12-29T05:55:48;6.82;;;2.45;;
31537;SDS011;18147;51.952;6.146;2022-12-29T05:58:15;4.70;;;1.73;;
31537;SDS011;18147;51.952;6.146;2022-12-29T06:00:41;2.42;;;1.45;;
31537;SDS011;18147;51.952;6.146;2022-12-29T06:03:08;6.18;;;1.83;;
31537;SDS011;18147;51.952;6.146;2022-12-29T06:05:34;4.70;;;1.40;;
31537;SDS011;18147;51.952;6.146;2022-12-29T06:07:59;5.55;;;1.90;;
31537;SDS011;18147;51.952;6.146;2022-12-29T06:10:26;7.30;;;1.50;;
31537;SDS011;18147;51.952;6.146;2022-12-29T06:13:09;8.73;;;1.95;;
31537;SDS011;18147;51.952;6.146;2022-12-29T06:15:38;6.47;;;1.20;;
31537;SDS011;18147;51.952;6.146;2022-12-29T06:18:06;10.85;;;1.30;;
31537;SDS011;18147;51.952;6.146;2022-12-29T06:20:33;3.83;;;1.83;;
31537;SDS011;18147;51.952;6.146;2022-12-29T06:23:01;8.13;;;1.33;;
31537;SDS011;18147;51.952;6.146;2022-12-29T06:25:26;12.07;;;2.00;;
31537;SDS011;18147;51.952;6.146;2022-12-29T06:27:53;18.48;;;2.17;;
31537;SDS011;18147;51.952;6.146;2022-12-29T06:30:19;8.05;;;1.73;;
31537;SDS011;18147;51.952;6.146;2022-12-29T06:32:44;10.23;;;3.17;;
31537;SDS011;18147;51.952;6.146;2022-12-29T06:35:11;9.07;;;1.88;;
31537;SDS011;18147;51.952;6.146;2022-12-29T06:37:44;7.80;;;1.77;;
31537;SDS011;18147;51.952;6.146;2022-12-29T06:40:10;8.50;;;1.55;;
31537;SDS011;18147;51.952;6.146;2022-12-29T06:42:55;5.30;;;1.40;;
31537;SDS011;18147;51.952;6.146;2022-12-29T06:45:32;8.75;;;2.00;;
31537;SDS011;18147;51.952;6.146;2022-12-29T06:47:58;3.72;;;1.67;;
31537;SDS011;18147;51.952;6.146;2022-12-29T06:50:23;8.23;;;1.75;;
31537;SDS011;18147;51.952;6.146;2022-12-29T06:52:49;4.28;;;1.65;;
31537;SDS011;18147;51.952;6.146;2022-12-29T06:55:14;9.15;;;1.83;;
31537;SDS011;18147;51.952;6.146;2022-12-29T06:57:40;14.68;;;1.92;;
31537;SDS011;18147;51.952;6.146;2022-12-29T07:00:05;9.00;;;1.23;;
31537;SDS011;18147;51.952;6.146;2022-12-29T07:02:31;8.52;;;1.23;;
31537;SDS011;18147;51.952;6.146;2022-12-29T07:04:57;6.32;;;1.25;;
31537;SDS011;18147;51.952;6.146;2022-12-29T07:07:22;6.10;;;1.38;;
31537;SDS011;18147;51.952;6.146;2022-12-29T07:09:47;6.90;;;1.08;;
31537;SDS011;18147;51.952;6.146;2022-12-29T07:12:13;5.13;;;1.25;;
31537;SDS011;18147;51.952;6.146;2022-12-29T07:14:39;4.10;;;1.40;;
31537;SDS011;18147;51.952;6.146;2022-12-29T07:17:04;8.18;;;1.23;;
31537;SDS011;18147;51.952;6.146;2022-12-29T07:19:31;6.85;;;1.20;;
31537;SDS011;18147;51.952;6.146;2022-12-29T07:21:57;6.25;;;1.27;;
31537;SDS011;18147;51.952;6.146;2022-12-29T07:24:22;4.35;;;1.20;;
31537;SDS011;18147;51.952;6.146;2022-12-29T07:26:50;5.57;;;1.85;;
31537;SDS011;18147;51.952;6.146;2022-12-29T07:29:16;6.72;;;1.50;;
31537;SDS011;18147;51.952;6.146;2022-12-29T07:31:42;3.08;;;1.70;;
31537;SDS011;18147;51.952;6.146;2022-12-29T07:34:08;11.88;;;1.70;;
31537;SDS011;18147;51.952;6.146;2022-12-29T07:36:33;12.88;;;1.38;;
31537;SDS011;18147;51.952;6.146;2022-12-29T07:38:59;4.20;;;1.88;;
31537;SDS011;18147;51.952;6.146;2022-12-29T07:41:24;11.60;;;1.98;;
31537;SDS011;18147;51.952;6.146;2022-12-29T07:43:50;5.55;;;1.50;;
31537;SDS011;18147;51.952;6.146;2022-12-29T07:46:33;6.35;;;1.25;;
31537;SDS011;18147;51.952;6.146;2022-12-29T07:48:58;6.68;;;1.50;;
31537;SDS011;18147;51.952;6.146;2022-12-29T07:51:24;7.43;;;1.65;;
31537;SDS011;18147;51.952;6.146;2022-12-29T07:53:49;10.70;;;1.67;;
31537;SDS011;18147;51.952;6.146;2022-12-29T07:56:15;4.97;;;1.50;;
31537;SDS011;18147;51.952;6.146;2022-12-29T07:58:41;6.75;;;1.50;;
31537;SDS011;18147;51.952;6.146;2022-12-29T08:01:07;3.35;;;1.05;;
31537;SDS011;18147;51.952;6.146;2022-12-29T08:03:32;3.28;;;1.42;;
31537;SDS011;18147;51.952;6.146;2022-12-29T08:05:58;9.00;;;1.52;;
31537;SDS011;18147;51.952;6.146;2022-12-29T08:08:23;8.52;;;1.63;;
31537;SDS011;18147;51.952;6.146;2022-12-29T08:10:49;3.88;;;1.40;;
31537;SDS011;18147;51.952;6.146;2022-12-29T08:13:14;6.47;;;1.50;;
31537;SDS011;18147;51.952;6.146;2022-12-29T08:15:40;5.60;;;1.77;;
31537;SDS011;18147;51.952;6.146;2022-12-29T08:18:05;9.57;;;2.20;;
31537;SDS011;18147;51.952;6.146;2022-12-29T08:20:31;7.85;;;1.50;;
31537;SDS011;18147;51.952;6.146;2022-12-29T08:22:57;6.13;;;1.48;;
31537;SDS011;18147;51.952;6.146;2022-12-29T08:25:22;10.45;;;2.05;;
31537;SDS011;18147;51.952;6.146;2022-12-29T08:27:48;10.55;;;2.05;;
31537;SDS011;18147;51.952;6.146;2022-12-29T08:30:13;7.15;;;1.80;;
31537;SDS011;18147;51.952;6.146;2022-12-29T08:32:39;3.35;;;1.48;;
31537;SDS011;18147;51.952;6.146;2022-12-29T08:35:04;9.63;;;1.73;;
31537;SDS011;18147;51.952;6.146;2022-12-29T08:37:31;13.68;;;3.35;;
31537;SDS011;18147;51.952;6.146;2022-12-29T08:39:57;17.50;;;2.03;;
31537;SDS011;18147;51.952;6.146;2022-12-29T08:42:23;4.88;;;1.65;;
31537;SDS011;18147;51.952;6.146;2022-12-29T08:44:50;12.23;;;2.30;;
31537;SDS011;18147;51.952;6.146;2022-12-29T08:47:15;9.00;;;1.88;;
31537;SDS011;18147;51.952;6.146;2022-12-29T08:49:41;10.00;;;2.33;;
31537;SDS011;18147;51.952;6.146;2022-12-29T08:52:07;9.68;;;2.75;;
31537;SDS011;18147;51.952;6.146;2022-12-29T08:54:33;14.07;;;3.15;;
31537;SDS011;18147;51.952;6.146;2022-12-29T08:56:58;21.08;;;3.90;;
31537;SDS011;18147;51.952;6.146;2022-12-29T08:59:32;8.68;;;1.70;;
31537;SDS011;18147;51.952;6.146;2022-12-29T09:01:58;10.52;;;1.80;;
31537;SDS011;18147;51.952;6.146;2022-12-29T09:04:23;9.38;;;2.22;;
31537;SDS011;18147;51.952;6.146;2022-12-29T09:06:49;12.40;;;2.90;;
31537;SDS011;18147;51.952;6.146;2022-12-29T09:09:14;11.68;;;2.35;;
31537;SDS011;18147;51.952;6.146;2022-12-29T09:11:40;7.00;;;2.40;;
31537;SDS011;18147;51.952;6.146;2022-12-29T09:14:07;10.93;;;2.75;;
31537;SDS011;18147;51.952;6.146;2022-12-29T09:16:32;13.57;;;1.63;;
31537;SDS011;18147;51.952;6.146;2022-12-29T09:18:58;6.38;;;1.60;;
31537;SDS011;18147;51.952;6.146;2022-12-29T09:21:24;11.50;;;2.03;;
31537;SDS011;18147;51.952;6.146;2022-12-29T09:23:49;10.35;;;1.80;;
31537;SDS011;18147;51.952;6.146;2022-12-29T09:26:15;9.98;;;2.08;;
31537;SDS011;18147;51.952;6.146;2022-12-29T09:28:41;9.02;;;2.10;;
31537;SDS011;18147;51.952;6.146;2022-12-29T09:31:06;11.93;;;2.03;;
31537;SDS011;18147;51.952;6.146;2022-12-29T09:33:32;16.25;;;3.88;;
31537;SDS011;18147;51.952;6.146;2022-12-29T09:36:00;14.05;;;2.80;;
31537;SDS011;18147;51.952;6.146;2022-12-29T09:38:26;8.63;;;1.88;;
31537;SDS011;18147;51.952;6.146;2022-12-29T09:40:54;16.20;;;2.58;;
31537;SDS011;18147;51.952;6.146;2022-12-29T09:46:23;11.52;;;1.83;;
31537;SDS011;18147;51.952;6.146;2022-12-29T09:49:01;8.93;;;1.95;;
31537;SDS011;18147;51.952;6.146;2022-12-29T09:51:32;11.93;;;2.05;;
31537;SDS011;18147;51.952;6.146;2022-12-29T09:54:10;12.35;;;2.10;;
31537;SDS011;18147;51.952;6.146;2022-12-29T09:56:58;15.00;;;1.98;;
31537;SDS011;18147;51.952;6.146;2022-12-29T09:59:25;10.02;;;1.88;;
31537;SDS011;18147;51.952;6.146;2022-12-29T10:02:18;10.73;;;1.73;;
31537;SDS011;18147;51.952;6.146;2022-12-29T10:04:53;15.55;;;2.25;;
31537;SDS011;18147;51.952;6.146;2022-12-29T10:07:31;9.82;;;1.70;;
31537;SDS011;18147;51.952;6.146;2022-12-29T10:15:29;8.02;;;1.48;;
31537;SDS011;18147;51.952;6.146;2022-12-29T10:23:47;9.00;;;1.50;;
31537;SDS011;18147;51.952;6.146;2022-12-29T10:28:54;6.20;;;1.48;;
31537;SDS011;18147;51.952;6.146;2022-12-29T10:31:25;8.90;;;1.55;;
31537;SDS011;18147;51.952;6.146;2022-12-29T10:33:57;9.52;;;1.67;;
31537;SDS011;18147;51.952;6.146;2022-12-29T10:36:28;8.27;;;2.17;;
31537;SDS011;18147;51.952;6.146;2022-12-29T10:39:33;9.15;;;1.30;;
31537;SDS011;18147;51.952;6.146;2022-12-29T10:41:59;10.30;;;1.73;;
31537;SDS011;18147;51.952;6.146;2022-12-29T10:44:34;10.63;;;1.63;;
31537;SDS011;18147;51.952;6.146;2022-12-29T10:47:03;10.13;;;2.15;;
31537;SDS011;18147;51.952;6.146;2022-12-29T10:49:32;6.68;;;1.45;;
31537;SDS011;18147;51.952;6.146;2022-12-29T10:52:05;12.13;;;2.40;;
31537;SDS011;18147;51.952;6.146;2022-12-29T10:54:38;6.15;;;1.38;;
31537;SDS011;18147;51.952;6.146;2022-12-29T10:57:22;9.10;;;1.52;;
31537;SDS011;18147;51.952;6.146;2022-12-29T10:59:52;12.95;;;1.98;;
31537;SDS011;18147;51.952;6.146;2022-12-29T11:07:57;7.97;;;1.58;;
31537;SDS011;18147;51.952;6.146;2022-12-29T11:13:01;6.10;;;1.60;;
31537;SDS011;18147;51.952;6.146;2022-12-29T11:15:43;6.55;;;1.85;;
31537;SDS011;18147;51.952;6.146;2022-12-29T11:18:19;9.40;;;1.95;;
31537;SDS011;18147;51.952;6.146;2022-12-29T11:20:50;13.73;;;1.73;;
31537;SDS011;18147;51.952;6.146;2022-12-29T11:23:22;5.97;;;2.17;;
31537;SDS011;18147;51.952;6.146;2022-12-29T11:28:46;6.57;;;1.63;;
31537;SDS011;18147;51.952;6.146;2022-12-29T11:31:31;5.05;;;2.40;;
31537;SDS011;18147;51.952;6.146;2022-12-29T11:34:08;20.08;;;3.50;;
31537;SDS011;18147;51.952;6.146;2022-12-29T11:36:34;13.68;;;3.42;;
31537;SDS011;18147;51.952;6.146;2022-12-29T11:39:00;11.23;;;2.03;;
31537;SDS011;18147;51.952;6.146;2022-12-29T11:41:28;11.88;;;1.92;;
31537;SDS011;18147;51.952;6.146;2022-12-29T11:43:57;12.15;;;3.20;;
31537;SDS011;18147;51.952;6.146;2022-12-29T11:46:32;19.83;;;4.05;;
31537;SDS011;18147;51.952;6.146;2022-12-29T11:49:01;10.10;;;2.83;;
31537;SDS011;18147;51.952;6.146;2022-12-29T11:51:30;13.02;;;2.97;;
31537;SDS011;18147;51.952;6.146;2022-12-29T11:54:09;12.93;;;3.75;;
31537;SDS011;18147;51.952;6.146;2022-12-29T11:56:52;10.75;;;2.70;;
31537;SDS011;18147;51.952;6.146;2022-12-29T12:01:57;11.77;;;2.67;;
31537;SDS011;18147;51.952;6.146;2022-12-29T12:04:25;15.38;;;3.63;;
31537;SDS011;18147;51.952;6.146;2022-12-29T12:07:02;8.93;;;2.65;;
31537;SDS011;18147;51.952;6.146;2022-12-29T12:09:29;16.70;;;3.30;;
31537;SDS011;18147;51.952;6.146;2022-12-29T12:11:59;19.30;;;4.22;;
31537;SDS011;18147;51.952;6.146;2022-12-29T12:17:14;9.35;;;2.63;;
31537;SDS011;18147;51.952;6.146;2022-12-29T12:19:48;15.88;;;2.70;;
31537;SDS011;18147;51.952;6.146;2022-12-29T12:24:51;12.15;;;3.63;;
31537;SDS011;18147;51.952;6.146;2022-12-29T12:27:24;11.00;;;2.25;;
31537;SDS011;18147;51.952;6.146;2022-12-29T12:35:13;11.50;;;3.00;;
31537;SDS011;18147;51.952;6.146;2022-12-29T12:56:47;4.38;;;2.45;;
31537;SDS011;18147;51.952;6.146;2022-12-29T13:05:02;12.45;;;2.97;;
31537;SDS011;18147;51.952;6.146;2022-12-29T13:12:48;16.27;;;2.65;;
31537;SDS011;18147;51.952;6.146;2022-12-29T13:29:21;10.18;;;3.10;;
31537;SDS011;18147;51.952;6.146;2022-12-29T13:34:42;11.90;;;2.00;;
31537;SDS011;18147;51.952;6.146;2022-12-29T13:37:19;15.50;;;2.55;;
31537;SDS011;18147;51.952;6.146;2022-12-29T13:39:51;15.15;;;2.63;;
31537;SDS011;18147;51.952;6.146;2022-12-29T13:42:19;8.65;;;2.78;;
31537;SDS011;18147;51.952;6.146;2022-12-29T13:44:47;10.60;;;2.53;;
31537;SDS011;18147;51.952;6.146;2022-12-29T13:50:27;15.57;;;3.65;;
31537;SDS011;18147;51.952;6.146;2022-12-29T13:58:48;12.30;;;2.78;;
31537;SDS011;18147;51.952;6.146;2022-12-29T14:03:57;10.18;;;2.28;;
31537;SDS011;18147;51.952;6.146;2022-12-29T14:06:34;12.10;;;2.83;;
31537;SDS011;18147;51.952;6.146;2022-12-29T14:09:06;13.88;;;3.15;;
31537;SDS011;18147;51.952;6.146;2022-12-29T14:11:51;15.15;;;2.97;;
31537;SDS011;18147;51.952;6.146;2022-12-29T14:14:21;8.07;;;2.25;;
31537;SDS011;18147;51.952;6.146;2022-12-29T14:16:51;7.13;;;2.78;;
31537;SDS011;18147;51.952;6.146;2022-12-29T14:19:25;19.48;;;4.55;;
31537;SDS011;18147;51.952;6.146;2022-12-29T14:22:00;11.07;;;2.88;;
31537;SDS011;18147;51.952;6.146;2022-12-29T14:26:57;18.58;;;3.33;;
31537;SDS011;18147;51.952;6.146;2022-12-29T14:31:48;9.85;;;1.75;;
31537;SDS011;18147;51.952;6.146;2022-12-29T14:36:52;13.52;;;1.60;;
31537;SDS011;18147;51.952;6.146;2022-12-29T14:44:32;4.77;;;1.10;;
31537;SDS011;18147;51.952;6.146;2022-12-29T14:46:59;4.68;;;1.10;;
31537;SDS011;18147;51.952;6.146;2022-12-29T14:49:31;6.03;;;1.27;;
31537;SDS011;18147;51.952;6.146;2022-12-29T14:52:06;6.90;;;1.40;;
31537;SDS011;18147;51.952;6.146;2022-12-29T14:57:33;7.57;;;1.90;;
31537;SDS011;18147;51.952;6.146;2022-12-29T15:00:07;10.52;;;2.13;;
31537;SDS011;18147;51.952;6.146;2022-12-29T15:02:44;6.05;;;2.10;;
31537;SDS011;18147;51.952;6.146;2022-12-29T15:07:59;9.88;;;2.40;;
31537;SDS011;18147;51.952;6.146;2022-12-29T15:10:31;7.15;;;2.10;;
31537;SDS011;18147;51.952;6.146;2022-12-29T15:13:03;16.55;;;3.28;;
31537;SDS011;18147;51.952;6.146;2022-12-29T15:15:35;10.35;;;2.00;;
31537;SDS011;18147;51.952;6.146;2022-12-29T15:20:51;13.18;;;2.40;;
31537;SDS011;18147;51.952;6.146;2022-12-29T15:23:20;13.40;;;2.50;;
31537;SDS011;18147;51.952;6.146;2022-12-29T15:25:47;6.72;;;2.42;;
31537;SDS011;18147;51.952;6.146;2022-12-29T15:28:18;9.53;;;2.63;;
31537;SDS011;18147;51.952;6.146;2022-12-29T15:30:56;12.82;;;3.25;;
31537;SDS011;18147;51.952;6.146;2022-12-29T15:33:27;13.00;;;2.92;;
31537;SDS011;18147;51.952;6.146;2022-12-29T15:35:53;12.20;;;3.00;;
31537;SDS011;18147;51.952;6.146;2022-12-29T15:38:22;9.07;;;3.95;;
31537;SDS011;18147;51.952;6.146;2022-12-29T15:40:53;8.63;;;2.60;;
31537;SDS011;18147;51.952;6.146;2022-12-29T15:46:18;14.07;;;3.33;;
31537;SDS011;18147;51.952;6.146;2022-12-29T15:48:44;12.88;;;3.20;;
31537;SDS011;18147;51.952;6.146;2022-12-29T15:51:29;13.38;;;2.88;;
31537;SDS011;18147;51.952;6.146;2022-12-29T15:53:57;16.08;;;3.72;;
31537;SDS011;18147;51.952;6.146;2022-12-29T15:56:23;11.38;;;2.78;;
31537;SDS011;18147;51.952;6.146;2022-12-29T15:58:50;9.15;;;2.78;;
31537;SDS011;18147;51.952;6.146;2022-12-29T16:01:17;10.95;;;4.07;;
31537;SDS011;18147;51.952;6.146;2022-12-29T16:03:52;10.68;;;2.85;;
31537;SDS011;18147;51.952;6.146;2022-12-29T16:06:26;15.95;;;3.20;;
31537;SDS011;18147;51.952;6.146;2022-12-29T16:08:58;15.70;;;3.60;;
31537;SDS011;18147;51.952;6.146;2022-12-29T16:11:38;14.13;;;2.70;;
31537;SDS011;18147;51.952;6.146;2022-12-29T16:14:15;11.68;;;2.83;;
31537;SDS011;18147;51.952;6.146;2022-12-29T16:16:43;8.13;;;2.63;;
31537;SDS011;18147;51.952;6.146;2022-12-29T16:19:14;12.73;;;2.63;;
31537;SDS011;18147;51.952;6.146;2022-12-29T16:21:46;10.63;;;3.97;;
31537;SDS011;18147;51.952;6.146;2022-12-29T16:24:13;11.77;;;3.58;;
31537;SDS011;18147;51.952;6.146;2022-12-29T16:26:46;13.98;;;3.08;;
31537;SDS011;18147;51.952;6.146;2022-12-29T16:29:13;13.20;;;5.53;;
31537;SDS011;18147;51.952;6.146;2022-12-29T16:31:50;21.70;;;4.22;;
31537;SDS011;18147;51.952;6.146;2022-12-29T16:40:19;7.72;;;2.70;;
31537;SDS011;18147;51.952;6.146;2022-12-29T16:45:36;5.63;;;2.20;;
31537;SDS011;18147;51.952;6.146;2022-12-29T16:48:21;8.93;;;1.90;;
31537;SDS011;18147;51.952;6.146;2022-12-29T16:50:50;10.98;;;3.25;;
31537;SDS011;18147;51.952;6.146;2022-12-29T16:53:29;12.55;;;2.88;;
31537;SDS011;18147;51.952;6.146;2022-12-29T16:58:28;7.57;;;3.03;;
31537;SDS011;18147;51.952;6.146;2022-12-29T17:00:57;6.07;;;2.30;;
31537;SDS011;18147;51.952;6.146;2022-12-29T17:03:26;7.15;;;1.85;;
31537;SDS011;18147;51.952;6.146;2022-12-29T17:05:57;13.05;;;2.45;;
31537;SDS011;18147;51.952;6.146;2022-12-29T17:08:23;11.60;;;3.08;;
31537;SDS011;18147;51.952;6.146;2022-12-29T17:10:49;6.32;;;2.67;;
31537;SDS011;18147;51.952;6.146;2022-12-29T17:13:35;7.85;;;2.35;;
31537;SDS011;18147;51.952;6.146;2022-12-29T17:16:01;6.47;;;2.47;;
31537;SDS011;18147;51.952;6.146;2022-12-29T17:18:27;9.93;;;1.23;;
31537;SDS011;18147;51.952;6.146;2022-12-29T17:20:53;9.05;;;1.80;;
31537;SDS011;18147;51.952;6.146;2022-12-29T17:23:18;8.50;;;2.35;;
31537;SDS011;18147;51.952;6.146;2022-12-29T17:25:43;7.68;;;1.42;;
31537;SDS011;18147;51.952;6.146;2022-12-29T17:28:17;2.30;;;1.55;;
31537;SDS011;18147;51.952;6.146;2022-12-29T17:30:46;5.40;;;2.17;;
31537;SDS011;18147;51.952;6.146;2022-12-29T17:33:13;3.08;;;1.38;;
31537;SDS011;18147;51.952;6.146;2022-12-29T17:35:40;9.68;;;2.17;;
31537;SDS011;18147;51.952;6.146;2022-12-29T17:38:13;8.48;;;1.60;;
31537;SDS011;18147;51.952;6.146;2022-12-29T17:40:54;2.50;;;1.25;;
31537;SDS011;18147;51.952;6.146;2022-12-29T17:43:20;4.20;;;1.23;;
31537;SDS011;18147;51.952;6.146;2022-12-29T17:45:46;6.85;;;1.42;;
31537;SDS011;18147;51.952;6.146;2022-12-29T17:48:17;16.25;;;2.75;;
31537;SDS011;18147;51.952;6.146;2022-12-29T17:50:43;8.25;;;1.48;;
31537;SDS011;18147;51.952;6.146;2022-12-29T17:53:13;3.72;;;2.15;;
31537;SDS011;18147;51.952;6.146;2022-12-29T17:55:45;8.82;;;1.92;;
31537;SDS011;18147;51.952;6.146;2022-12-29T17:58:18;9.18;;;1.88;;
31537;SDS011;18147;51.952;6.146;2022-12-29T18:00:48;7.55;;;1.48;;
31537;SDS011;18147;51.952;6.146;2022-12-29T18:03:17;6.30;;;2.28;;